Terminal Aerodrome Forecast
Issued by NWS Kansas City/Pleasant Hill, MO

Home | Current Version | Previous Version | Text Only | Print | Product List | Glossary On
Versions: 1 2 3 4 5 6 7 8 9 10 11 12 13 14
000
FTUS43 KEAX 201700
TAFMCI
TAF
KMCI 201728Z 2018/2118 04006KT P6SM FEW250
     FM210200 11007KT P6SM SCT180
     FM211300 13010KT 6SM -DZ OVC025=

USA.gov is the U.S. government's official web portal to all federal, state and local government web resources and services.